Clyde S. Van Enkevort — WDJ4194 — position and weather

sailwx.info

Track history (hours):
 
Tides and Currents Weather Stations Pressure Air Temp Water Temp Dewpoint Dewpoint Depression Visibility Wind Speed Wind Dir Waves Ship Positions

Clyde S. Van Enkevort

Owner: Van Enkevort Tug & Barge Inc., Escanaba, MI. More information available from US FCC via Universal Licensing System and Coast Guard Vessel Documentation Center.

Last reported at 2017-Oct-22 02:57 UTC. Time now 2017-Oct-22 15:45 UTC.
Position N 45°57' W 084°14'.

Length 30 m; draft 6.2 m.

Type: Towing. MMSI: 338888000.

Date/timePositionNaut miles runAvg speedWind from/ knotsBaromVisibWave heightAir tempDewpointWater temp
2017-Oct-22 02:57N 45°57' W 084°14'511.6
2017-Oct-22 02:30N 45°54' W 084°20'611.6
2017-Oct-22 02:00N 45°52' W 084°28'611.4
2017-Oct-22 01:30N 45°51' W 084°36'611.3
2017-Oct-22 01:00N 45°49' W 084°44'611.4
2017-Oct-22 00:30N 45°49' W 084°52'611.2
2017-Oct-22 00:00N 45°50' W 084°60'510.9
2017-Oct-21 23:30N 45°50' W 085°07'510.5
2017-Oct-21 23:00N 45°45' W 085°10'611.6
2017-Oct-21 22:30N 45°40' W 085°15'611.7
2017-Oct-21 22:00N 45°35' W 085°20'611.7
2017-Oct-21 21:30N 45°31' W 085°25'611.8
2017-Oct-21 21:00N 45°26' W 085°30'611.9
2017-Oct-21 20:30N 45°21' W 085°35'612.1
2017-Oct-21 20:00N 45°16' W 085°40'611.9
2017-Oct-21 19:30N 45°12' W 085°45'611.6
2017-Oct-21 19:00N 45°07' W 085°50'611.7
2017-Oct-21 18:30N 45°02' W 085°55'  
2017-Oct-19 13:56N 45°50' W 086°00'610.6
2017-Oct-19 13:23N 45°52' W 085°52'410.3
2017-Oct-19 12:58N 45°53' W 085°46'510.5
2017-Oct-19 12:30N 45°53' W 085°39'510.5
2017-Oct-19 12:00N 45°54' W 085°32'510.5
2017-Oct-19 11:30N 45°53' W 085°24'510.8
2017-Oct-19 11:00N 45°52' W 085°17'510.7
2017-Oct-19 10:30N 45°52' W 085°09'510.5
2017-Oct-19 10:00N 45°51' W 085°01'510.4
2017-Oct-19 09:30N 45°50' W 084°54'510.4
2017-Oct-19 09:00N 45°49' W 084°47'5 9.7
2017-Oct-19 08:30N 45°50' W 084°40'5 9.2
2017-Oct-19 08:00N 45°51' W 084°33'3 1.8
2017-Oct-19 06:07N 45°49' W 084°29'0 0.0
2017-Oct-19 06:00N 45°49' W 084°29'0 0.0
2017-Oct-19 05:30N 45°49' W 084°29'0 0.0
2017-Oct-19 05:00N 45°49' W 084°29'0 0.0
2017-Oct-19 04:30N 45°49' W 084°29'0 0.0
2017-Oct-19 04:01N 45°49' W 084°29'0 0.0
2017-Oct-19 03:30N 45°49' W 084°29'0 0.0
2017-Oct-19 03:00N 45°49' W 084°29'0 0.0
2017-Oct-19 02:31N 45°49' W 084°29'0 0.0
2017-Oct-19 02:01N 45°49' W 084°29'0 0.0
2017-Oct-19 01:30N 45°49' W 084°29'0 0.0
2017-Oct-19 01:00N 45°49' W 084°29'0 0.0
2017-Oct-19 00:31N 45°49' W 084°29'0 0.0
2017-Oct-19 00:00N 45°49' W 084°29'0 0.0
2017-Oct-18 23:30N 45°49' W 084°29'0 0.9
2017-Oct-18 23:00N 45°49' W 084°29'2 3.3
2017-Oct-18 22:31N 45°51' W 084°30'2 4.8
2017-Oct-18 22:00N 45°52' W 084°26'3 5.9
2017-Oct-18 21:30N 45°52' W 084°22'3 5.9
2017-Oct-18 21:00N 45°53' W 084°18'297 8.2
2017-Oct-17 08:51N 47°02' W 091°17'411.6
2017-Oct-17 08:28N 47°00' W 091°23'511.6
2017-Oct-17 08:00N 46°58' W 091°30'611.5
2017-Oct-17 07:30N 46°55' W 091°38'611.4
2017-Oct-17 07:00N 46°53' W 091°46'611.3
2017-Oct-17 06:30N 46°51' W 091°53'611.2
2017-Oct-17 06:01N 46°48' W 092°01'4 8.6
2017-Oct-17 05:31N 46°46' W 092°06'2 3.6
2017-Oct-17 05:00N 46°45' W 092°07'1 1.4
2017-Oct-17 04:30N 46°45' W 092°08'0 0.1
2017-Oct-17 04:00N 46°45' W 092°08'0 0.0
2017-Oct-17 03:30N 46°45' W 092°08'0 0.0
2017-Oct-17 03:00N 46°45' W 092°08'0 0.0
2017-Oct-17 02:30N 46°45' W 092°08'0 0.0
2017-Oct-17 02:00N 46°45' W 092°08'0 0.0
2017-Oct-17 01:30N 46°45' W 092°08'0 0.0
2017-Oct-17 01:00N 46°45' W 092°08'0 0.0
2017-Oct-17 00:31N 46°45' W 092°08'0 0.0
2017-Oct-17 00:00N 46°45' W 092°08'0 0.0
2017-Oct-16 23:31N 46°45' W 092°08'0 0.0
2017-Oct-16 23:00N 46°45' W 092°08'0 0.0
2017-Oct-16 22:30N 46°45' W 092°08'0 0.0
2017-Oct-16 22:01N 46°45' W 092°08'0 0.0
2017-Oct-16 21:30N 46°45' W 092°08'0 0.0
2017-Oct-16 21:00N 46°45' W 092°08'0 0.0
2017-Oct-16 20:30N 46°45' W 092°08'0 0.0
2017-Oct-16 20:00N 46°45' W 092°08'0 0.0
2017-Oct-16 19:30N 46°45' W 092°08'0 0.0
2017-Oct-16 19:00N 46°45' W 092°08'0 0.0
2017-Oct-16 18:30N 46°45' W 092°08'0 0.0
2017-Oct-16 18:00N 46°45' W 092°08'0 0.0
2017-Oct-16 17:30N 46°45' W 092°08'0 1.0
2017-Oct-16 17:00N 46°45' W 092°07'1 2.9
2017-Oct-16 16:31N 46°45' W 092°05'2 4.8
2017-Oct-16 16:01N 46°47' W 092°04'5 9.6
2017-Oct-16 15:30N 46°49' W 091°57'5 9.7
2017-Oct-16 15:00N 46°51' W 091°51'611.2
2017-Oct-16 14:30N 46°53' W 091°43'1111.1
2017-Oct-16 13:31N 46°57' W 091°28'  
2017-Oct-14 03:32N 46°08' W 084°01'0 9.7
2017-Oct-14 03:30N 46°08' W 084°01'2810.1
2017-Oct-14 00:45N 45°43' W 083°43'411.1
2017-Oct-14 00:23N 45°39' W 083°41'610.9
2017-Oct-13 23:49N 45°34' W 083°36'511.0
2017-Oct-13 23:20N 45°30' W 083°32'411.3
2017-Oct-13 23:01N 45°26' W 083°30'611.5
2017-Oct-13 22:30N 45°21' W 083°26'  
Track history (hours):
 
Tides and Currents Weather Stations Pressure Air Temp Water Temp Dewpoint Dewpoint Depression Visibility Wind Speed Wind Dir Waves Ship Positions

Clyde S. Van Enkevort

Owner: Van Enkevort Tug & Barge Inc., Escanaba, MI. More information available from US FCC via Universal Licensing System and Coast Guard Vessel Documentation Center.

Last reported at 2017-Oct-22 02:57 UTC. Time now 2017-Oct-22 15:45 UTC.
Position N 45°57' W 084°14'.

Length 30 m; draft 6.2 m.

Type: Towing. MMSI: 338888000.

Date/timePositionNaut miles runAvg speedWind from/ knotsBaromVisibWave heightAir tempDewpointWater temp
2017-Oct-22 02:57N 45°57' W 084°14'511.6
2017-Oct-22 02:30N 45°54' W 084°20'611.6
2017-Oct-22 02:00N 45°52' W 084°28'611.4
2017-Oct-22 01:30N 45°51' W 084°36'611.3
2017-Oct-22 01:00N 45°49' W 084°44'611.4
2017-Oct-22 00:30N 45°49' W 084°52'611.2
2017-Oct-22 00:00N 45°50' W 084°60'510.9
2017-Oct-21 23:30N 45°50' W 085°07'510.5
2017-Oct-21 23:00N 45°45' W 085°10'611.6
2017-Oct-21 22:30N 45°40' W 085°15'611.7
2017-Oct-21 22:00N 45°35' W 085°20'611.7
2017-Oct-21 21:30N 45°31' W 085°25'611.8
2017-Oct-21 21:00N 45°26' W 085°30'611.9
2017-Oct-21 20:30N 45°21' W 085°35'612.1
2017-Oct-21 20:00N 45°16' W 085°40'611.9
2017-Oct-21 19:30N 45°12' W 085°45'611.6
2017-Oct-21 19:00N 45°07' W 085°50'611.7
2017-Oct-21 18:30N 45°02' W 085°55'  
2017-Oct-19 13:56N 45°50' W 086°00'610.6
2017-Oct-19 13:23N 45°52' W 085°52'410.3
2017-Oct-19 12:58N 45°53' W 085°46'510.5
2017-Oct-19 12:30N 45°53' W 085°39'510.5
2017-Oct-19 12:00N 45°54' W 085°32'510.5
2017-Oct-19 11:30N 45°53' W 085°24'510.8
2017-Oct-19 11:00N 45°52' W 085°17'510.7
2017-Oct-19 10:30N 45°52' W 085°09'510.5
2017-Oct-19 10:00N 45°51' W 085°01'510.4
2017-Oct-19 09:30N 45°50' W 084°54'510.4
2017-Oct-19 09:00N 45°49' W 084°47'5 9.7
2017-Oct-19 08:30N 45°50' W 084°40'5 9.2
2017-Oct-19 08:00N 45°51' W 084°33'3 1.8
2017-Oct-19 06:07N 45°49' W 084°29'0 0.0
2017-Oct-19 06:00N 45°49' W 084°29'0 0.0
2017-Oct-19 05:30N 45°49' W 084°29'0 0.0
2017-Oct-19 05:00N 45°49' W 084°29'0 0.0
2017-Oct-19 04:30N 45°49' W 084°29'0 0.0
2017-Oct-19 04:01N 45°49' W 084°29'0 0.0
2017-Oct-19 03:30N 45°49' W 084°29'0 0.0
2017-Oct-19 03:00N 45°49' W 084°29'0 0.0
2017-Oct-19 02:31N 45°49' W 084°29'0 0.0
2017-Oct-19 02:01N 45°49' W 084°29'0 0.0
2017-Oct-19 01:30N 45°49' W 084°29'0 0.0
2017-Oct-19 01:00N 45°49' W 084°29'0 0.0
2017-Oct-19 00:31N 45°49' W 084°29'0 0.0
2017-Oct-19 00:00N 45°49' W 084°29'0 0.0
2017-Oct-18 23:30N 45°49' W 084°29'0 0.9
2017-Oct-18 23:00N 45°49' W 084°29'2 3.3
2017-Oct-18 22:31N 45°51' W 084°30'2 4.8
2017-Oct-18 22:00N 45°52' W 084°26'3 5.9
2017-Oct-18 21:30N 45°52' W 084°22'3 5.9
2017-Oct-18 21:00N 45°53' W 084°18'297 8.2
2017-Oct-17 08:51N 47°02' W 091°17'411.6
2017-Oct-17 08:28N 47°00' W 091°23'511.6
2017-Oct-17 08:00N 46°58' W 091°30'611.5
2017-Oct-17 07:30N 46°55' W 091°38'611.4
2017-Oct-17 07:00N 46°53' W 091°46'611.3
2017-Oct-17 06:30N 46°51' W 091°53'611.2
2017-Oct-17 06:01N 46°48' W 092°01'4 8.6
2017-Oct-17 05:31N 46°46' W 092°06'2 3.6
2017-Oct-17 05:00N 46°45' W 092°07'1 1.4
2017-Oct-17 04:30N 46°45' W 092°08'0 0.1
2017-Oct-17 04:00N 46°45' W 092°08'0 0.0
2017-Oct-17 03:30N 46°45' W 092°08'0 0.0
2017-Oct-17 03:00N 46°45' W 092°08'0 0.0
2017-Oct-17 02:30N 46°45' W 092°08'0 0.0
2017-Oct-17 02:00N 46°45' W 092°08'0 0.0
2017-Oct-17 01:30N 46°45' W 092°08'0 0.0
2017-Oct-17 01:00N 46°45' W 092°08'0 0.0
2017-Oct-17 00:31N 46°45' W 092°08'0 0.0
2017-Oct-17 00:00N 46°45' W 092°08'0 0.0
2017-Oct-16 23:31N 46°45' W 092°08'0 0.0
2017-Oct-16 23:00N 46°45' W 092°08'0 0.0
2017-Oct-16 22:30N 46°45' W 092°08'0 0.0
2017-Oct-16 22:01N 46°45' W 092°08'0 0.0
2017-Oct-16 21:30N 46°45' W 092°08'0 0.0
2017-Oct-16 21:00N 46°45' W 092°08'0 0.0
2017-Oct-16 20:30N 46°45' W 092°08'0 0.0
2017-Oct-16 20:00N 46°45' W 092°08'0 0.0
2017-Oct-16 19:30N 46°45' W 092°08'0 0.0
2017-Oct-16 19:00N 46°45' W 092°08'0 0.0
2017-Oct-16 18:30N 46°45' W 092°08'0 0.0
2017-Oct-16 18:00N 46°45' W 092°08'0 0.0
2017-Oct-16 17:30N 46°45' W 092°08'0 1.0
2017-Oct-16 17:00N 46°45' W 092°07'1 2.9
2017-Oct-16 16:31N 46°45' W 092°05'2 4.8
2017-Oct-16 16:01N 46°47' W 092°04'5 9.6
2017-Oct-16 15:30N 46°49' W 091°57'5 9.7
2017-Oct-16 15:00N 46°51' W 091°51'611.2
2017-Oct-16 14:30N 46°53' W 091°43'1111.1
2017-Oct-16 13:31N 46°57' W 091°28'  
2017-Oct-14 03:32N 46°08' W 084°01'0 9.7
2017-Oct-14 03:30N 46°08' W 084°01'2810.1
2017-Oct-14 00:45N 45°43' W 083°43'411.1
2017-Oct-14 00:23N 45°39' W 083°41'610.9
2017-Oct-13 23:49N 45°34' W 083°36'511.0
2017-Oct-13 23:20N 45°30' W 083°32'411.3
2017-Oct-13 23:01N 45°26' W 083°30'611.5
2017-Oct-13 22:30N 45°21' W 083°26'  

Dump ship's entire track history